sensor_id;sensor_type;location;lat;lon;timestamp;pressure;altitude;pressure_sealevel;temperature;humidity
56713;BME280;42589;45.536;9.032;2023-02-17T00:00:45;100963.16;;;14.22;46.00
56713;BME280;42589;45.536;9.032;2023-02-17T00:03:47;100950.97;;;13.63;46.77
56713;BME280;42589;45.536;9.032;2023-02-17T00:06:48;100969.63;;;14.20;45.57
56713;BME280;42589;45.536;9.032;2023-02-17T00:09:49;100945.47;;;14.11;45.85
56713;BME280;42589;45.536;9.032;2023-02-17T00:12:50;100965.78;;;14.32;45.01
56713;BME280;42589;45.536;9.032;2023-02-17T00:15:52;100968.00;;;14.36;45.32
56713;BME280;42589;45.536;9.032;2023-02-17T00:18:56;100953.00;;;14.26;45.57
56713;BME280;42589;45.536;9.032;2023-02-17T00:21:59;100961.84;;;14.26;46.04
56713;BME280;42589;45.536;9.032;2023-02-17T00:25:01;100902.09;;;13.90;44.43
56713;BME280;42589;45.536;9.032;2023-02-17T00:28:02;100963.03;;;14.14;44.87
56713;BME280;42589;45.536;9.032;2023-02-17T00:31:11;100895.25;;;13.78;45.66
56713;BME280;42589;45.536;9.032;2023-02-17T00:34:13;100954.53;;;13.91;45.22
56713;BME280;42589;45.536;9.032;2023-02-17T00:37:16;100958.03;;;14.01;45.22
56713;BME280;42589;45.536;9.032;2023-02-17T00:40:17;100926.75;;;13.74;45.44
56713;BME280;42589;45.536;9.032;2023-02-17T00:43:19;100955.88;;;14.05;46.04
56713;BME280;42589;45.536;9.032;2023-02-17T00:46:20;100937.81;;;13.89;45.24
56713;BME280;42589;45.536;9.032;2023-02-17T00:49:23;100938.16;;;13.66;45.42
56713;BME280;42589;45.536;9.032;2023-02-17T00:52:24;100933.09;;;13.63;45.03
56713;BME280;42589;45.536;9.032;2023-02-17T00:55:25;100947.72;;;13.69;45.35
56713;BME280;42589;45.536;9.032;2023-02-17T00:58:26;100948.03;;;13.56;45.63
56713;BME280;42589;45.536;9.032;2023-02-17T01:01:31;100955.19;;;13.65;45.92
56713;BME280;42589;45.536;9.032;2023-02-17T01:04:32;100954.03;;;13.78;45.53
56713;BME280;42589;45.536;9.032;2023-02-17T01:07:34;100904.22;;;13.30;45.84
56713;BME280;42589;45.536;9.032;2023-02-17T01:10:40;100949.84;;;13.65;46.06
56713;BME280;42589;45.536;9.032;2023-02-17T01:13:41;100955.88;;;13.67;45.29
56713;BME280;42589;45.536;9.032;2023-02-17T01:16:46;100923.91;;;13.38;45.71
56713;BME280;42589;45.536;9.032;2023-02-17T01:19:46;100952.19;;;13.78;45.58
56713;BME280;42589;45.536;9.032;2023-02-17T01:22:48;100933.31;;;13.42;46.02
56713;BME280;42589;45.536;9.032;2023-02-17T01:25:49;100930.63;;;13.42;45.76
56713;BME280;42589;45.536;9.032;2023-02-17T01:28:50;100953.94;;;13.50;46.28
56713;BME280;42589;45.536;9.032;2023-02-17T01:31:51;100948.31;;;13.43;46.08
56713;BME280;42589;45.536;9.032;2023-02-17T01:34:53;100941.19;;;13.24;45.92
56713;BME280;42589;45.536;9.032;2023-02-17T01:37:54;100935.81;;;13.15;46.34
56713;BME280;42589;45.536;9.032;2023-02-17T01:40:59;100933.16;;;13.24;45.96
56713;BME280;42589;45.536;9.032;2023-02-17T01:44:17;100948.31;;;13.53;46.18
56713;BME280;42589;45.536;9.032;2023-02-17T01:47:19;100941.16;;;13.34;46.09
56713;BME280;42589;45.536;9.032;2023-02-17T01:50:24;100939.34;;;13.35;46.13
56713;BME280;42589;45.536;9.032;2023-02-17T01:53:34;100922.91;;;13.30;45.85
56713;BME280;42589;45.536;9.032;2023-02-17T01:56:39;100924.31;;;13.05;45.92
56713;BME280;42589;45.536;9.032;2023-02-17T01:59:41;100902.97;;;13.05;45.76
56713;BME280;42589;45.536;9.032;2023-02-17T02:02:45;100914.75;;;13.12;45.67
56713;BME280;42589;45.536;9.032;2023-02-17T02:05:46;100919.38;;;13.10;45.86
56713;BME280;42589;45.536;9.032;2023-02-17T02:08:52;100923.75;;;13.20;45.36
56713;BME280;42589;45.536;9.032;2023-02-17T02:11:55;100919.97;;;13.13;45.74
56713;BME280;42589;45.536;9.032;2023-02-17T02:15:08;100917.00;;;13.07;45.60
56713;BME280;42589;45.536;9.032;2023-02-17T02:21:43;100920.94;;;13.02;46.98
56713;BME280;42589;45.536;9.032;2023-02-17T02:28:31;100935.72;;;13.26;46.67
56713;BME280;42589;45.536;9.032;2023-02-17T02:35:17;100930.91;;;13.10;46.50
56713;BME280;42589;45.536;9.032;2023-02-17T02:38:37;100928.66;;;13.06;46.36
56713;BME280;42589;45.536;9.032;2023-02-17T02:41:57;100927.38;;;13.10;46.53
56713;BME280;42589;45.536;9.032;2023-02-17T02:44:59;100929.63;;;13.14;45.87
56713;BME280;42589;45.536;9.032;2023-02-17T02:48:01;100926.69;;;12.88;45.69
56713;BME280;42589;45.536;9.032;2023-02-17T02:57:28;100918.94;;;13.24;45.07
56713;BME280;42589;45.536;9.032;2023-02-17T03:10:48;100910.34;;;12.52;45.89
56713;BME280;42589;45.536;9.032;2023-02-17T03:13:49;100866.94;;;12.12;46.09
56713;BME280;42589;45.536;9.032;2023-02-17T03:16:51;100884.34;;;12.25;45.74
56713;BME280;42589;45.536;9.032;2023-02-17T03:19:52;100914.75;;;12.13;46.27
56713;BME280;42589;45.536;9.032;2023-02-17T03:22:53;100899.03;;;12.10;46.04
56713;BME280;42589;45.536;9.032;2023-02-17T03:25:53;100906.41;;;12.27;45.67
56713;BME280;42589;45.536;9.032;2023-02-17T03:28:54;100913.44;;;12.48;45.68
56713;BME280;42589;45.536;9.032;2023-02-17T03:31:56;100871.00;;;12.16;45.75
56713;BME280;42589;45.536;9.032;2023-02-17T03:34:57;100890.78;;;12.13;46.44
56713;BME280;42589;45.536;9.032;2023-02-17T03:37:58;100910.03;;;12.26;46.95
56713;BME280;42589;45.536;9.032;2023-02-17T03:40:58;100899.25;;;12.38;45.74
56713;BME280;42589;45.536;9.032;2023-02-17T03:43:59;100909.50;;;12.42;46.29
56713;BME280;42589;45.536;9.032;2023-02-17T03:47:00;100868.00;;;11.99;45.80
56713;BME280;42589;45.536;9.032;2023-02-17T03:50:03;100871.25;;;12.03;45.63
56713;BME280;42589;45.536;9.032;2023-02-17T03:53:06;100885.59;;;12.12;45.96
56713;BME280;42589;45.536;9.032;2023-02-17T03:56:07;100912.16;;;12.32;45.92
56713;BME280;42589;45.536;9.032;2023-02-17T03:59:08;100903.97;;;12.15;45.95
56713;BME280;42589;45.536;9.032;2023-02-17T04:02:08;100886.53;;;12.01;45.54
56713;BME280;42589;45.536;9.032;2023-02-17T04:05:10;100899.88;;;12.11;45.96
56713;BME280;42589;45.536;9.032;2023-02-17T04:08:11;100904.66;;;12.17;44.87
56713;BME280;42589;45.536;9.032;2023-02-17T04:11:12;100928.53;;;12.18;46.30
56713;BME280;42589;45.536;9.032;2023-02-17T04:14:13;100930.75;;;12.13;45.13
56713;BME280;42589;45.536;9.032;2023-02-17T04:17:16;100932.16;;;12.17;45.32
56713;BME280;42589;45.536;9.032;2023-02-17T04:20:17;100937.63;;;12.16;45.58
56713;BME280;42589;45.536;9.032;2023-02-17T04:23:18;100942.81;;;12.17;46.32
56713;BME280;42589;45.536;9.032;2023-02-17T04:26:19;100905.03;;;11.93;45.32
56713;BME280;42589;45.536;9.032;2023-02-17T04:29:21;100937.72;;;11.74;46.52
56713;BME280;42589;45.536;9.032;2023-02-17T04:32:22;100945.28;;;11.99;45.55
56713;BME280;42589;45.536;9.032;2023-02-17T04:35:43;100929.75;;;11.83;45.74
56713;BME280;42589;45.536;9.032;2023-02-17T04:38:44;100890.28;;;11.68;45.67
56713;BME280;42589;45.536;9.032;2023-02-17T04:41:45;100938.09;;;11.90;45.77
56713;BME280;42589;45.536;9.032;2023-02-17T04:44:46;100941.34;;;11.94;45.07
56713;BME280;42589;45.536;9.032;2023-02-17T04:47:47;100915.00;;;11.79;45.41
56713;BME280;42589;45.536;9.032;2023-02-17T04:50:48;100920.94;;;11.83;44.99
56713;BME280;42589;45.536;9.032;2023-02-17T04:53:49;100946.59;;;11.84;45.14
56713;BME280;42589;45.536;9.032;2023-02-17T04:56:50;100911.75;;;11.45;45.86
56713;BME280;42589;45.536;9.032;2023-02-17T04:59:51;100943.56;;;11.68;45.68
56713;BME280;42589;45.536;9.032;2023-02-17T05:02:53;100942.25;;;11.62;45.89
56713;BME280;42589;45.536;9.032;2023-02-17T05:05:54;100901.94;;;11.46;45.67
56713;BME280;42589;45.536;9.032;2023-02-17T05:08:55;100894.53;;;11.49;46.25
56713;BME280;42589;45.536;9.032;2023-02-17T05:11:56;100908.63;;;11.61;45.73
56713;BME280;42589;45.536;9.032;2023-02-17T05:14:57;100956.03;;;11.46;46.48
56713;BME280;42589;45.536;9.032;2023-02-17T05:17:58;100946.75;;;11.61;45.88
56713;BME280;42589;45.536;9.032;2023-02-17T05:20:59;100956.66;;;11.80;46.11
56713;BME280;42589;45.536;9.032;2023-02-17T05:24:00;100931.19;;;11.67;45.81
56713;BME280;42589;45.536;9.032;2023-02-17T05:27:01;100919.84;;;11.65;45.73
56713;BME280;42589;45.536;9.032;2023-02-17T05:30:03;100924.66;;;11.71;45.98
56713;BME280;42589;45.536;9.032;2023-02-17T05:33:04;100943.47;;;12.00;45.39
56713;BME280;42589;45.536;9.032;2023-02-17T05:36:07;100960.19;;;11.60;45.69
56713;BME280;42589;45.536;9.032;2023-02-17T05:39:08;100906.34;;;11.14;47.67
56713;BME280;42589;45.536;9.032;2023-02-17T05:42:09;100942.84;;;11.87;46.16
56713;BME280;42589;45.536;9.032;2023-02-17T05:45:10;100955.00;;;12.10;45.97
56713;BME280;42589;45.536;9.032;2023-02-17T05:48:12;100950.81;;;11.66;45.74
56713;BME280;42589;45.536;9.032;2023-02-17T05:51:14;100909.19;;;11.65;45.71
56713;BME280;42589;45.536;9.032;2023-02-17T05:54:16;100942.59;;;11.90;45.47
56713;BME280;42589;45.536;9.032;2023-02-17T05:57:17;100939.25;;;11.76;45.32
56713;BME280;42589;45.536;9.032;2023-02-17T06:00:19;100954.78;;;11.71;46.60
56713;BME280;42589;45.536;9.032;2023-02-17T06:03:20;100928.75;;;11.33;46.90
56713;BME280;42589;45.536;9.032;2023-02-17T06:06:21;100938.75;;;11.61;45.69
56713;BME280;42589;45.536;9.032;2023-02-17T06:09:21;100918.66;;;11.57;46.13
56713;BME280;42589;45.536;9.032;2023-02-17T06:12:22;100958.03;;;11.75;45.52
56713;BME280;42589;45.536;9.032;2023-02-17T06:15:24;100945.28;;;11.78;46.24
56713;BME280;42589;45.536;9.032;2023-02-17T06:18:25;100960.53;;;11.76;44.98
56713;BME280;42589;45.536;9.032;2023-02-17T06:21:26;100951.28;;;11.71;45.10
56713;BME280;42589;45.536;9.032;2023-02-17T06:24:27;100954.16;;;11.58;45.82
56713;BME280;42589;45.536;9.032;2023-02-17T06:27:28;100968.16;;;11.81;46.67
56713;BME280;42589;45.536;9.032;2023-02-17T06:30:29;100972.47;;;11.93;44.83
56713;BME280;42589;45.536;9.032;2023-02-17T06:33:30;100957.97;;;11.86;45.01
56713;BME280;42589;45.536;9.032;2023-02-17T06:36:31;100954.38;;;11.97;45.14
56713;BME280;42589;45.536;9.032;2023-02-17T06:39:32;100983.69;;;11.97;44.58
56713;BME280;42589;45.536;9.032;2023-02-17T06:42:33;100988.03;;;11.98;45.13
56713;BME280;42589;45.536;9.032;2023-02-17T06:45:34;100954.66;;;11.94;44.58
56713;BME280;42589;45.536;9.032;2023-02-17T06:48:35;100995.56;;;12.14;44.43
56713;BME280;42589;45.536;9.032;2023-02-17T06:51:36;100991.38;;;12.21;44.65
56713;BME280;42589;45.536;9.032;2023-02-17T06:54:37;100998.53;;;12.20;44.52
56713;BME280;42589;45.536;9.032;2023-02-17T06:57:39;100973.53;;;12.12;44.58
56713;BME280;42589;45.536;9.032;2023-02-17T07:00:39;100961.09;;;11.91;45.00
56713;BME280;42589;45.536;9.032;2023-02-17T07:03:41;100994.88;;;12.12;45.51
56713;BME280;42589;45.536;9.032;2023-02-17T07:06:42;101007.59;;;12.39;44.14
56713;BME280;42589;45.536;9.032;2023-02-17T07:09:43;101023.25;;;12.22;45.17
56713;BME280;42589;45.536;9.032;2023-02-17T07:12:43;101017.16;;;12.41;45.49
56713;BME280;42589;45.536;9.032;2023-02-17T07:15:45;100994.16;;;12.10;45.09
56713;BME280;42589;45.536;9.032;2023-02-17T07:18:46;101007.00;;;12.04;46.07
56713;BME280;42589;45.536;9.032;2023-02-17T07:21:47;100994.88;;;12.12;46.47
56713;BME280;42589;45.536;9.032;2023-02-17T07:24:49;101030.81;;;12.27;45.75
56713;BME280;42589;45.536;9.032;2023-02-17T07:27:51;101009.31;;;12.49;45.63
56713;BME280;42589;45.536;9.032;2023-02-17T07:30:52;101011.31;;;12.57;44.53
56713;BME280;42589;45.536;9.032;2023-02-17T07:33:53;101012.28;;;12.56;44.99
56713;BME280;42589;45.536;9.032;2023-02-17T07:36:55;101029.41;;;13.04;44.31
56713;BME280;42589;45.536;9.032;2023-02-17T07:39:57;101025.72;;;12.85;44.44
56713;BME280;42589;45.536;9.032;2023-02-17T07:42:59;101018.28;;;13.08;45.28
56713;BME280;42589;45.536;9.032;2023-02-17T07:46:06;100979.09;;;13.18;43.74
56713;BME280;42589;45.536;9.032;2023-02-17T07:49:08;101018.59;;;13.54;44.54
56713;BME280;42589;45.536;9.032;2023-02-17T07:52:09;101020.25;;;13.84;43.42
56713;BME280;42589;45.536;9.032;2023-02-17T07:55:11;100968.66;;;13.74;42.95
56713;BME280;42589;45.536;9.032;2023-02-17T07:58:13;101024.66;;;14.22;43.12
56713;BME280;42589;45.536;9.032;2023-02-17T08:01:22;101016.75;;;14.21;42.99
56713;BME280;42589;45.536;9.032;2023-02-17T08:04:24;101029.81;;;14.33;43.24
56713;BME280;42589;45.536;9.032;2023-02-17T08:07:24;101030.59;;;14.16;44.35
56713;BME280;42589;45.536;9.032;2023-02-17T08:10:25;101009.22;;;14.06;44.42
56713;BME280;42589;45.536;9.032;2023-02-17T08:13:45;101032.41;;;13.49;46.07
56713;BME280;42589;45.536;9.032;2023-02-17T08:16:47;101029.34;;;14.10;46.26
56713;BME280;42589;45.536;9.032;2023-02-17T08:19:48;101003.75;;;14.35;44.47
56713;BME280;42589;45.536;9.032;2023-02-17T08:22:49;101033.91;;;14.37;44.44
56713;BME280;42589;45.536;9.032;2023-02-17T08:25:50;101043.00;;;14.82;44.33
56713;BME280;42589;45.536;9.032;2023-02-17T08:28:51;101028.63;;;14.46;44.03
56713;BME280;42589;45.536;9.032;2023-02-17T08:31:52;101052.06;;;14.99;44.22
56713;BME280;42589;45.536;9.032;2023-02-17T08:34:55;101020.56;;;15.11;44.59
56713;BME280;42589;45.536;9.032;2023-02-17T08:37:56;101011.66;;;14.92;44.37
56713;BME280;42589;45.536;9.032;2023-02-17T08:40:57;101060.56;;;15.12;44.07
56713;BME280;42589;45.536;9.032;2023-02-17T08:44:00;101048.72;;;14.87;44.30
56713;BME280;42589;45.536;9.032;2023-02-17T08:47:03;101031.34;;;15.37;43.65
56713;BME280;42589;45.536;9.032;2023-02-17T08:50:06;101064.59;;;16.06;42.90
56713;BME280;42589;45.536;9.032;2023-02-17T08:53:07;101037.25;;;16.02;42.41
56713;BME280;42589;45.536;9.032;2023-02-17T08:56:08;101049.63;;;16.21;42.25
56713;BME280;42589;45.536;9.032;2023-02-17T08:59:11;101067.53;;;16.20;42.81
56713;BME280;42589;45.536;9.032;2023-02-17T09:02:13;101061.63;;;16.09;42.73
56713;BME280;42589;45.536;9.032;2023-02-17T09:05:14;101048.91;;;16.45;42.25
56713;BME280;42589;45.536;9.032;2023-02-17T09:08:16;101024.59;;;16.12;41.62
56713;BME280;42589;45.536;9.032;2023-02-17T09:11:17;101034.31;;;16.82;40.99
56713;BME280;42589;45.536;9.032;2023-02-17T09:14:20;101057.47;;;16.48;42.00
56713;BME280;42589;45.536;9.032;2023-02-17T09:17:23;101031.69;;;16.64;41.77
56713;BME280;42589;45.536;9.032;2023-02-17T09:20:24;101034.88;;;17.02;41.12
56713;BME280;42589;45.536;9.032;2023-02-17T09:23:26;101050.72;;;17.37;40.71
56713;BME280;42589;45.536;9.032;2023-02-17T09:26:27;101028.84;;;17.08;41.15
56713;BME280;42589;45.536;9.032;2023-02-17T09:29:28;101058.13;;;17.60;40.27
56713;BME280;42589;45.536;9.032;2023-02-17T09:32:29;101028.03;;;17.40;40.33
56713;BME280;42589;45.536;9.032;2023-02-17T09:35:30;101027.88;;;17.74;40.43
56713;BME280;42589;45.536;9.032;2023-02-17T09:38:32;101007.41;;;17.32;40.47
56713;BME280;42589;45.536;9.032;2023-02-17T09:41:58;101071.34;;;18.43;39.93
56713;BME280;42589;45.536;9.032;2023-02-17T09:45:26;101051.25;;;18.15;39.88
56713;BME280;42589;45.536;9.032;2023-02-17T09:48:30;101066.41;;;18.55;38.90
56713;BME280;42589;45.536;9.032;2023-02-17T09:55:27;101060.84;;;19.04;38.85
56713;BME280;42589;45.536;9.032;2023-02-17T10:01:37;101055.91;;;18.29;39.60
56713;BME280;42589;45.536;9.032;2023-02-17T10:04:43;101057.91;;;18.91;38.26
56713;BME280;42589;45.536;9.032;2023-02-17T10:07:51;101049.06;;;18.66;38.66
56713;BME280;42589;45.536;9.032;2023-02-17T10:21:01;101069.97;;;19.03;38.32
56713;BME280;42589;45.536;9.032;2023-02-17T10:24:05;101067.34;;;19.41;38.04
56713;BME280;42589;45.536;9.032;2023-02-17T10:30:33;101060.03;;;17.92;41.03
56713;BME280;42589;45.536;9.032;2023-02-17T10:33:49;101074.28;;;18.81;39.68
56713;BME280;42589;45.536;9.032;2023-02-17T10:37:05;101070.00;;;19.72;38.48
56713;BME280;42589;45.536;9.032;2023-02-17T10:40:20;101070.41;;;19.61;38.05
56713;BME280;42589;45.536;9.032;2023-02-17T10:43:25;101051.47;;;19.46;37.85
56713;BME280;42589;45.536;9.032;2023-02-17T10:46:30;101058.06;;;19.20;38.75
56713;BME280;42589;45.536;9.032;2023-02-17T10:49:36;101033.94;;;19.88;37.55
56713;BME280;42589;45.536;9.032;2023-02-17T10:52:40;101025.53;;;19.45;37.86
56713;BME280;42589;45.536;9.032;2023-02-17T10:58:57;101044.19;;;18.05;40.31
56713;BME280;42589;45.536;9.032;2023-02-17T11:02:14;101044.88;;;17.99;40.36
56713;BME280;42589;45.536;9.032;2023-02-17T11:05:23;101019.47;;;18.97;38.65
56713;BME280;42589;45.536;9.032;2023-02-17T11:08:40;101038.16;;;17.79;40.66
56713;BME280;42589;45.536;9.032;2023-02-17T11:11:52;101011.84;;;18.69;39.40
56713;BME280;42589;45.536;9.032;2023-02-17T11:14:57;101035.06;;;19.33;38.32
56713;BME280;42589;45.536;9.032;2023-02-17T11:18:00;101025.88;;;20.32;36.44
56713;BME280;42589;45.536;9.032;2023-02-17T11:21:10;101007.38;;;20.59;36.10
56713;BME280;42589;45.536;9.032;2023-02-17T11:24:11;101004.59;;;20.37;35.75
56713;BME280;42589;45.536;9.032;2023-02-17T11:27:23;101013.06;;;18.98;37.83
56713;BME280;42589;45.536;9.032;2023-02-17T11:30:26;101009.31;;;20.06;36.41
56713;BME280;42589;45.536;9.032;2023-02-17T11:33:31;100985.03;;;19.30;36.88
56713;BME280;42589;45.536;9.032;2023-02-17T11:36:32;100972.44;;;17.24;40.33
56713;BME280;42589;45.536;9.032;2023-02-17T11:39:38;100994.13;;;18.36;39.26
56713;BME280;42589;45.536;9.032;2023-02-17T11:42:40;100978.03;;;18.27;38.56
56713;BME280;42589;45.536;9.032;2023-02-17T11:59:20;100959.97;;;19.67;36.85
56713;BME280;42589;45.536;9.032;2023-02-17T12:06:21;100930.72;;;20.60;35.34
56713;BME280;42589;45.536;9.032;2023-02-17T12:09:40;100928.94;;;21.10;35.16
56713;BME280;42589;45.536;9.032;2023-02-17T12:13:00;100934.47;;;20.80;35.26
56713;BME280;42589;45.536;9.032;2023-02-17T12:16:08;100941.25;;;21.13;34.84
56713;BME280;42589;45.536;9.032;2023-02-17T12:36:18;100908.72;;;19.67;36.98
56713;BME280;42589;45.536;9.032;2023-02-17T12:42:37;100901.22;;;20.80;35.83
56713;BME280;42589;45.536;9.032;2023-02-17T12:45:43;100889.69;;;21.36;34.62
56713;BME280;42589;45.536;9.032;2023-02-17T12:48:59;100891.00;;;19.35;36.98
56713;BME280;42589;45.536;9.032;2023-02-17T12:52:07;100897.00;;;19.37;37.32
56713;BME280;42589;45.536;9.032;2023-02-17T12:55:25;100880.31;;;19.04;37.26
56713;BME280;42589;45.536;9.032;2023-02-17T12:58:27;100889.34;;;18.34;39.15
56713;BME280;42589;45.536;9.032;2023-02-17T13:01:30;100875.22;;;20.06;36.24
56713;BME280;42589;45.536;9.032;2023-02-17T13:04:33;100861.66;;;20.72;34.70
56713;BME280;42589;45.536;9.032;2023-02-17T13:07:41;100866.56;;;18.68;37.85
56713;BME280;42589;45.536;9.032;2023-02-17T13:10:59;100892.94;;;19.56;37.07
56713;BME280;42589;45.536;9.032;2023-02-17T13:14:24;100873.22;;;19.26;37.29
56713;BME280;42589;45.536;9.032;2023-02-17T13:17:52;100891.16;;;19.34;37.59
56713;BME280;42589;45.536;9.032;2023-02-17T13:24:14;100887.06;;;19.23;37.75
56713;BME280;42589;45.536;9.032;2023-02-17T13:27:34;100869.94;;;19.98;36.67
56713;BME280;42589;45.536;9.032;2023-02-17T13:30:41;100877.75;;;20.08;35.94
56713;BME280;42589;45.536;9.032;2023-02-17T13:33:54;100858.84;;;20.44;35.61
56713;BME280;42589;45.536;9.032;2023-02-17T13:36:55;100864.38;;;19.70;36.40
56713;BME280;42589;45.536;9.032;2023-02-17T13:39:58;100851.69;;;20.73;35.25
56713;BME280;42589;45.536;9.032;2023-02-17T13:46:16;100832.75;;;20.94;34.94
56713;BME280;42589;45.536;9.032;2023-02-17T13:49:27;100785.19;;;20.72;34.39
56713;BME280;42589;45.536;9.032;2023-02-17T13:52:30;100841.88;;;21.21;34.29
56713;BME280;42589;45.536;9.032;2023-02-17T13:55:32;100838.97;;;21.16;33.74
56713;BME280;42589;45.536;9.032;2023-02-17T13:58:35;100814.19;;;19.90;36.35
56713;BME280;42589;45.536;9.032;2023-02-17T14:01:40;100832.69;;;20.88;34.60
56713;BME280;42589;45.536;9.032;2023-02-17T14:05:03;100810.63;;;20.84;34.73
56713;BME280;42589;45.536;9.032;2023-02-17T14:08:17;100804.00;;;21.15;34.17
56713;BME280;42589;45.536;9.032;2023-02-17T14:11:22;100806.66;;;21.71;33.08
56713;BME280;42589;45.536;9.032;2023-02-17T14:14:30;100827.19;;;21.59;33.59
56713;BME280;42589;45.536;9.032;2023-02-17T14:17:32;100792.81;;;21.52;33.36
56713;BME280;42589;45.536;9.032;2023-02-17T14:20:35;100816.38;;;21.30;33.99
56713;BME280;42589;45.536;9.032;2023-02-17T14:23:49;100783.19;;;21.43;33.60
56713;BME280;42589;45.536;9.032;2023-02-17T14:27:06;100806.00;;;21.69;33.26
56713;BME280;42589;45.536;9.032;2023-02-17T14:30:34;100808.25;;;21.59;33.51
56713;BME280;42589;45.536;9.032;2023-02-17T14:33:33;100816.75;;;21.97;33.21
56713;BME280;42589;45.536;9.032;2023-02-17T14:36:36;100803.84;;;21.92;32.80
56713;BME280;42589;45.536;9.032;2023-02-17T14:39:37;100781.66;;;20.71;33.95
56713;BME280;42589;45.536;9.032;2023-02-17T14:42:38;100811.88;;;20.45;34.68
56713;BME280;42589;45.536;9.032;2023-02-17T14:45:39;100786.94;;;21.14;33.65
56713;BME280;42589;45.536;9.032;2023-02-17T14:48:40;100794.16;;;21.63;32.85
56713;BME280;42589;45.536;9.032;2023-02-17T14:51:41;100807.38;;;20.95;34.11
56713;BME280;42589;45.536;9.032;2023-02-17T14:54:48;100816.31;;;21.87;33.32
56713;BME280;42589;45.536;9.032;2023-02-17T14:57:50;100808.63;;;19.92;35.32
56713;BME280;42589;45.536;9.032;2023-02-17T15:00:51;100776.31;;;21.41;33.26
56713;BME280;42589;45.536;9.032;2023-02-17T15:03:53;100765.81;;;21.59;32.93
56713;BME280;42589;45.536;9.032;2023-02-17T15:06:54;100790.19;;;22.14;32.19
56713;BME280;42589;45.536;9.032;2023-02-17T15:09:56;100767.75;;;21.09;33.79
56713;BME280;42589;45.536;9.032;2023-02-17T15:12:57;100796.13;;;20.92;34.31
56713;BME280;42589;45.536;9.032;2023-02-17T15:15:58;100765.22;;;21.64;33.51
56713;BME280;42589;45.536;9.032;2023-02-17T15:18:59;100792.00;;;22.07;33.00
56713;BME280;42589;45.536;9.032;2023-02-17T15:22:01;100763.78;;;21.74;33.51
56713;BME280;42589;45.536;9.032;2023-02-17T15:25:11;100781.00;;;22.08;33.01
56713;BME280;42589;45.536;9.032;2023-02-17T15:28:15;100754.78;;;21.61;33.41
56713;BME280;42589;45.536;9.032;2023-02-17T15:31:16;100778.19;;;21.88;33.19
56713;BME280;42589;45.536;9.032;2023-02-17T15:34:24;100762.38;;;21.85;33.26
56713;BME280;42589;45.536;9.032;2023-02-17T15:37:25;100761.56;;;21.91;33.02
56713;BME280;42589;45.536;9.032;2023-02-17T15:40:27;100762.63;;;21.14;33.95
56713;BME280;42589;45.536;9.032;2023-02-17T15:43:33;100787.59;;;21.92;33.02
56713;BME280;42589;45.536;9.032;2023-02-17T15:46:35;100775.50;;;21.47;33.65
56713;BME280;42589;45.536;9.032;2023-02-17T15:49:36;100774.16;;;21.01;34.05
56713;BME280;42589;45.536;9.032;2023-02-17T15:52:37;100775.94;;;20.45;34.81
56713;BME280;42589;45.536;9.032;2023-02-17T15:55:38;100785.19;;;20.72;34.68
56713;BME280;42589;45.536;9.032;2023-02-17T15:58:39;100778.19;;;21.40;33.53
56713;BME280;42589;45.536;9.032;2023-02-17T16:01:40;100757.97;;;21.77;32.79
56713;BME280;42589;45.536;9.032;2023-02-17T16:04:41;100787.41;;;19.89;35.43
56713;BME280;42589;45.536;9.032;2023-02-17T16:07:42;100788.38;;;21.10;33.89
56713;BME280;42589;45.536;9.032;2023-02-17T16:10:44;100799.31;;;21.30;33.78
56713;BME280;42589;45.536;9.032;2023-02-17T16:13:46;100795.69;;;20.88;34.11
56713;BME280;42589;45.536;9.032;2023-02-17T16:16:47;100771.56;;;20.58;34.64
56713;BME280;42589;45.536;9.032;2023-02-17T16:19:47;100790.81;;;20.77;34.74
56713;BME280;42589;45.536;9.032;2023-02-17T16:22:49;100780.59;;;21.28;33.85
56713;BME280;42589;45.536;9.032;2023-02-17T16:25:50;100742.72;;;21.22;33.39
56713;BME280;42589;45.536;9.032;2023-02-17T16:28:50;100765.41;;;20.50;35.04
56713;BME280;42589;45.536;9.032;2023-02-17T16:31:52;100742.16;;;19.69;36.13
56713;BME280;42589;45.536;9.032;2023-02-17T16:34:54;100788.13;;;20.34;35.95
56713;BME280;42589;45.536;9.032;2023-02-17T16:38:06;100803.22;;;21.21;34.36
56713;BME280;42589;45.536;9.032;2023-02-17T16:41:12;100772.28;;;21.30;34.16
56713;BME280;42589;45.536;9.032;2023-02-17T16:44:17;100767.38;;;21.12;34.32
56713;BME280;42589;45.536;9.032;2023-02-17T16:47:19;100783.94;;;21.02;34.27
56713;BME280;42589;45.536;9.032;2023-02-17T16:50:30;100785.81;;;21.02;34.51
56713;BME280;42589;45.536;9.032;2023-02-17T16:53:31;100803.22;;;20.93;34.45
56713;BME280;42589;45.536;9.032;2023-02-17T16:56:36;100790.97;;;20.69;34.83
56713;BME280;42589;45.536;9.032;2023-02-17T16:59:39;100819.25;;;20.73;34.95
56713;BME280;42589;45.536;9.032;2023-02-17T17:02:40;100808.06;;;20.54;35.12
56713;BME280;42589;45.536;9.032;2023-02-17T17:05:41;100809.47;;;20.50;35.45
56713;BME280;42589;45.536;9.032;2023-02-17T17:08:42;100822.78;;;20.52;35.46
56713;BME280;42589;45.536;9.032;2023-02-17T17:11:44;100818.75;;;20.26;35.62
56713;BME280;42589;45.536;9.032;2023-02-17T17:14:45;100839.56;;;20.11;36.25
56713;BME280;42589;45.536;9.032;2023-02-17T17:18:02;100837.50;;;20.13;36.46
56713;BME280;42589;45.536;9.032;2023-02-17T17:21:03;100847.59;;;19.89;36.43
56713;BME280;42589;45.536;9.032;2023-02-17T17:24:04;100850.25;;;19.60;37.07
56713;BME280;42589;45.536;9.032;2023-02-17T17:27:05;100835.75;;;19.46;37.42
56713;BME280;42589;45.536;9.032;2023-02-17T17:30:11;100846.09;;;19.57;37.36
56713;BME280;42589;45.536;9.032;2023-02-17T17:33:15;100832.88;;;19.62;37.05
56713;BME280;42589;45.536;9.032;2023-02-17T17:39:22;100865.72;;;19.51;37.26